Thompsons Station, Tennessee
Current Conditions -  °F | °C
As of 7:53 AM on Friday 24 Oct 2014 (Local Time) from KBNA Reporting Station
Light Fog Light Fog  
Wind Chill:   Ceiling: Unl
Heat Index:   Visibility: 9mi
Dew Point:   Wind: 5mph
Humidity: 89%   Direction: 290°WNW
Pressure: 30.15"   Gusts: NA
Location:  35.8°N, 86.91°W
Report Text: KBNA 241253Z 29004KT 9SM BCFG SCT110 09/07 A3015 RMK AO2 SLP210 BCFG E T00890072
Loading
Personal Weather Stations






























Interactive Weather Map
Tropical Storm Tracking
New forecast layout! Learn more

10-Day Weather Forecast

Advertisements
Track Severe Weather on mobile